Warning: Javascript must be enabled to use all the features on this page!


Page Loading - Please Wait...

Click to hideNews Bulletins

Peak Streamflow for the Nation

USGS 01364500 ESOPUS CREEK AT MOUNT MARION NY

Ulster County, New York
Hydrologic Unit Code 02020006
Latitude  42°02'16", Longitude  73°58'19" NAD83
Drainage area 419  square miles
Gage datum 39.36 feet above NAVD88
Output formats
Table
Graph
Tab-separated file
peakfq (watstore) format
Reselect output format
Water
Year
Date Gage
Height
(feet)
Stream-
flow
(cfs)
1908 1908-02-16   9,9801
1909 1909-02-20   17,8001
1910 1910-04-26 25.103 28,000
1911 1911-03-28   5,2201
1913 1913-03-27   13,2001
1915 1915-02-25 19.223 10,4006
1971 1971-09-14 20.086 7,3606
1972 1972-06-24 20.24 7,7006,9
1973 1973-06-30 20.25 7,7206
1974 1973-12-21 21.08 9,8006
1975 1975-02-25 18.93 5,1306
1976 1976-01-28 23.82 18,1006
1977 1977-03-14 19.86 6,9206
1978 1977-11-09 22.32 13,0006
1979 1979-09-06 20.43 8,1906
1980 1980-03-22 24.31 19,5006
1981 1981-02-20 21.10 9,8706
1982 1982-06-08 19.57 6,4906
1983 1983-04-17 21.08 9,6206
1984 1984-04-05 22.29 12,8006
1985 1985-09-27 15.75 1,3006
1986 1986-03-15 20.29 7,8406
1987 1987-04-05 24.78 22,5006
1988 1987-10-04 18.23 4,0706
1989 1989-05-06 21.25 10,3006
1990 1989-10-20 19.86 6,9806
1991 1990-10-24 18.86 5,0806
1992 1992-06-01 19.21 5,7006
1993 1993-04-18 20.51 8,5906
1994 1993-11-28 19.60 6,6506
1995 1995-03-09 19.00 5,5306
1996 1996-01-20 21.72 11,6006
1997 1996-12-02 22.06 12,6006
1998 1998-05-12 21.31 10,5006
1999 1999-03-22 20.17 7,8306
2000 2000-06-07 21.06 9,9006
2001 2000-12-17 21.99 12,4006
2002 2002-06-07   1,7002,6
2003 2003-09-29 18.70 5,0106
2004 2004-09-19 21.54 11,1006
2005 2005-04-03 26.46 30,5006
2006 2006-06-28 23.87 18,8006
2007 2007-04-17 24.05 19,5006
2008 2008-03-09 22.30 13,3006
2009 2008-12-12 19.77 6,9906
2010 2010-03-24 21.57 11,2006
2011 2011-08-28 25.39 25,2006,9
2012 2011-12-08 18.97 5,4806
2013 2012-12-21 19.95 7,3606
2014 2014-03-30 18.61 4,8606
2015 2015-09-30 21.36 10,7006
2016 2016-02-25 20.51 8,5906
2017 2017-04-04 18.01 3,9306
2018 2018-08-18 18.30 4,3706
2019 2019-01-24 19.09 5,6906
2020 2020-05-02 19.92 7,3006
?
  Peak Gage-Height Qualification Codes.
?
  Peak Streamflow Qualification Codes.